Time;durP1;ratioP1;P1;durP2;ratioP2;P2;SDS_P1;SDS_P2;PMS_P1;PMS_P2;Temp;Humidity;BMP_temperature;BMP_pressure;BME280_temperature;BME280_humidity;BME280_pressure;Samples;Min_cycle;Max_cycle;Signal;HPM_P1;HPM_P2
2023/01/24 00:01:10;;;;;;;27.15;14.23;;;5.90;99.90;;;;;;5117951;28;20127;-73
2023/01/24 00:03:36;;;;;;;22.60;13.75;;;5.90;99.90;;;;;;5117934;28;20126;-73
2023/01/24 00:06:01;;;;;;;24.13;13.80;;;6.00;99.90;;;;;;5117577;28;20097;-73
2023/01/24 00:08:27;;;;;;;22.73;13.68;;;6.00;99.90;;;;;;5117432;28;20043;-73
2023/01/24 00:11:08;;;;;;;25.30;13.02;;;5.90;99.90;;;;;;5117849;28;20038;-73
2023/01/24 00:13:35;;;;;;;28.27;14.95;;;6.00;99.90;;;;;;5117864;28;20063;-73
2023/01/24 00:16:16;;;;;;;25.58;14.05;;;6.00;99.90;;;;;;5117745;28;20032;-73
2023/01/24 00:18:42;;;;;;;24.60;14.13;;;6.00;99.90;;;;;;5116432;28;20051;-73
2023/01/24 00:21:16;;;;;;;29.05;15.55;;;6.00;99.90;;;;;;5117669;28;20324;-73
2023/01/24 00:23:44;;;;;;;24.95;13.23;;;6.00;99.90;;;;;;5117407;28;20421;-73
2023/01/24 00:26:10;;;;;;;25.60;14.77;;;5.90;99.90;;;;;;5116982;28;20350;-73
2023/01/24 00:28:36;;;;;;;31.55;16.17;;;5.90;99.90;;;;;;5117492;28;20078;-73
2023/01/24 00:31:03;;;;;;;29.00;15.63;;;5.80;99.90;;;;;;5117281;28;20065;-74
2023/01/24 00:33:29;;;;;;;28.17;15.70;;;5.90;99.90;;;;;;5116786;28;20134;-73
2023/01/24 00:35:55;;;;;;;29.08;15.75;;;5.90;99.90;;;;;;5117433;28;20054;-73
2023/01/24 00:38:22;;;;;;;25.30;15.43;;;6.00;99.90;;;;;;5116494;28;20039;-73
2023/01/24 00:40:48;;;;;;;27.55;15.57;;;6.00;99.90;;;;;;5117359;28;20051;-73
2023/01/24 00:43:14;;;;;;;29.42;15.68;;;6.00;99.90;;;;;;5117400;28;20047;-73
2023/01/24 00:45:40;;;;;;;29.33;15.77;;;6.00;99.90;;;;;;5117341;28;20043;-73
2023/01/24 00:48:07;;;;;;;30.67;16.65;;;6.00;99.90;;;;;;5117229;28;20032;-73
2023/01/24 00:50:33;;;;;;;27.92;15.52;;;5.90;99.90;;;;;;5117067;28;20039;-73
2023/01/24 00:53:00;;;;;;;28.63;15.52;;;6.00;99.90;;;;;;5117276;28;20039;-73
2023/01/24 00:55:26;;;;;;;27.90;16.05;;;5.90;99.90;;;;;;5115584;28;20105;-74
2023/01/24 00:57:52;;;;;;;28.90;15.68;;;5.90;99.90;;;;;;5117237;28;20097;-73
2023/01/24 01:00:18;;;;;;;26.80;15.80;;;5.90;99.90;;;;;;5117278;28;20367;-73
2023/01/24 01:02:44;;;;;;;31.95;16.60;;;5.90;99.90;;;;;;5115891;28;20490;-73
2023/01/24 01:05:09;;;;;;;28.73;15.82;;;5.90;99.90;;;;;;5117197;28;20032;-73
2023/01/24 01:07:35;;;;;;;34.85;17.35;;;5.90;99.90;;;;;;5117047;28;20123;-73
2023/01/24 01:10:01;;;;;;;30.02;16.98;;;5.90;99.90;;;;;;5116820;28;20036;-73
2023/01/24 01:12:27;;;;;;;28.00;15.75;;;6.00;99.90;;;;;;5117060;28;20040;-73
2023/01/24 01:14:53;;;;;;;36.55;17.52;;;6.00;99.90;;;;;;5117024;28;20047;-73
2023/01/24 01:17:18;;;;;;;32.72;16.80;;;6.00;99.90;;;;;;5116985;28;20329;-73
2023/01/24 01:19:44;;;;;;;33.78;18.45;;;6.00;99.90;;;;;;5117001;28;20043;-73
2023/01/24 01:22:10;;;;;;;32.25;17.15;;;6.00;99.90;;;;;;5116988;28;20112;-73
2023/01/24 01:24:36;;;;;;;35.03;17.83;;;6.00;99.90;;;;;;5116943;28;20042;-74
2023/01/24 01:27:02;;;;;;;32.03;18.00;;;6.10;99.90;;;;;;5116589;28;20031;-73
2023/01/24 01:29:28;;;;;;;34.15;17.67;;;6.00;99.90;;;;;;5116871;28;20080;-73
2023/01/24 01:31:53;;;;;;;32.05;16.55;;;6.00;99.90;;;;;;5116328;28;20056;-73
2023/01/24 01:34:20;;;;;;;31.20;17.15;;;6.00;99.90;;;;;;5116909;28;20054;-73
2023/01/24 01:36:45;;;;;;;29.20;18.02;;;5.90;99.90;;;;;;5116819;28;20040;-73
2023/01/24 01:39:11;;;;;;;34.75;18.13;;;5.90;99.90;;;;;;5115844;28;20040;-73
2023/01/24 01:41:37;;;;;;;30.17;17.30;;;5.90;99.90;;;;;;5116507;28;20039;-73
2023/01/24 01:47:16;;;;;;;30.45;17.05;;;5.90;99.90;;;;;;5120644;28;20374;-73
2023/01/24 01:50:01;;;;;;;35.03;17.58;;;5.90;99.90;;;;;;5120528;28;20123;-73
2023/01/24 01:52:31;;;;;;;35.88;18.02;;;5.90;99.90;;;;;;5120205;28;20039;-73
2023/01/24 01:55:01;;;;;;;33.88;18.15;;;5.90;99.90;;;;;;5120386;28;20047;-73
2023/01/24 01:57:30;;;;;;;31.52;18.30;;;5.90;99.90;;;;;;5119461;28;20040;-74
2023/01/24 02:00:07;;;;;;;31.42;18.33;;;5.90;99.90;;;;;;5120338;28;20050;-73
2023/01/24 02:02:33;;;;;;;29.98;17.80;;;6.00;99.90;;;;;;5120601;28;20031;-73
2023/01/24 02:05:02;;;;;;;32.65;17.55;;;5.90;99.90;;;;;;5120249;28;20044;-73
2023/01/24 02:07:34;;;;;;;32.17;18.17;;;6.00;99.90;;;;;;5120184;28;20086;-73
2023/01/24 02:10:00;;;;;;;36.05;19.02;;;5.90;99.90;;;;;;5119837;28;20044;-73
2023/01/24 02:12:35;;;;;;;34.47;17.95;;;5.80;99.90;;;;;;5120181;28;20047;-73
2023/01/24 02:17:51;;;;;;;35.13;17.90;;;6.00;99.90;;;;;;5120119;28;20046;-72
2023/01/24 02:20:31;;;;;;;33.42;17.58;;;5.90;99.90;;;;;;5119940;28;20416;-73
2023/01/24 02:23:03;;;;;;;34.40;17.40;;;5.90;99.90;;;;;;5119605;28;20036;-73
2023/01/24 02:25:44;;;;;;;32.85;17.75;;;6.00;99.90;;;;;;5119498;28;20046;-73
2023/01/24 02:28:10;;;;;;;30.70;18.23;;;6.00;99.90;;;;;;5118518;28;20039;-73
2023/01/24 02:30:37;;;;;;;38.80;18.55;;;6.00;99.90;;;;;;5119722;28;20101;-74
2023/01/24 02:33:20;;;;;;;33.83;18.00;;;6.00;99.90;;;;;;5119375;27;20341;-73
2023/01/24 02:35:46;;;;;;;34.00;17.45;;;6.00;99.90;;;;;;5119705;28;20059;-73
2023/01/24 02:38:20;;;;;;;32.75;17.67;;;6.00;99.90;;;;;;5119324;28;20444;-73
2023/01/24 02:40:49;;;;;;;33.20;18.27;;;5.90;99.90;;;;;;5118298;28;20051;-73
2023/01/24 02:43:17;;;;;;;31.23;17.52;;;6.00;99.90;;;;;;5118271;28;20048;-74
2023/01/24 02:45:43;;;;;;;29.73;16.98;;;6.00;99.90;;;;;;5119514;28;20389;-73
2023/01/24 02:48:09;;;;;;;35.55;19.02;;;5.90;99.90;;;;;;5119371;28;20115;-73
2023/01/24 02:53:31;;;;;;;41.15;18.60;;;6.00;99.90;;;;;;5119371;28;20078;-73
2023/01/24 02:58:43;;;;;;;32.53;17.52;;;6.00;99.90;;;;;;5119315;28;20117;-73
2023/01/24 03:01:10;;;;;;;31.15;17.42;;;6.00;99.90;;;;;;5119217;28;20045;-73
2023/01/24 03:03:36;;;;;;;34.13;18.05;;;6.00;99.90;;;;;;5119133;28;20072;-73
2023/01/24 03:06:01;;;;;;;33.13;17.70;;;6.10;99.90;;;;;;5119088;28;20043;-73
2023/01/24 03:08:30;;;;;;;28.38;16.50;;;6.00;99.90;;;;;;5118754;28;20039;-73
2023/01/24 03:10:56;;;;;;;33.65;17.95;;;6.00;99.90;;;;;;5118988;28;20032;-73
2023/01/24 03:35:18;;;;;;;30.38;17.00;;;5.70;99.90;;;;;;5118386;28;20050;-73
2023/01/24 03:40:28;;;;;;;37.63;17.90;;;5.80;99.90;;;;;;5117991;28;20440;-73
2023/01/24 03:42:54;;;;;;;33.72;18.15;;;5.80;99.90;;;;;;5117868;28;20043;-73
2023/01/24 03:45:31;;;;;;;32.95;18.27;;;5.90;99.90;;;;;;5118151;28;20040;-73
2023/01/24 03:47:59;;;;;;;38.42;19.50;;;5.80;99.90;;;;;;5117922;28;20035;-74
2023/01/24 03:53:22;;;;;;;33.72;17.77;;;5.80;99.90;;;;;;5118189;27;20082;-73
2023/01/24 03:56:01;;;;;;;35.25;18.73;;;5.70;99.90;;;;;;5117796;28;20043;-73
2023/01/24 03:58:28;;;;;;;33.10;18.27;;;5.80;99.90;;;;;;5118114;28;20088;-73
2023/01/24 04:00:54;;;;;;;31.67;16.58;;;5.70;99.90;;;;;;5118024;28;20040;-73
2023/01/24 04:03:20;;;;;;;34.25;18.48;;;5.70;99.90;;;;;;5118069;28;20114;-73
2023/01/24 04:05:47;;;;;;;31.42;17.63;;;5.70;99.90;;;;;;5117654;28;20118;-73
2023/01/24 04:08:13;;;;;;;35.63;18.58;;;5.80;99.90;;;;;;5117536;28;20079;-73
2023/01/24 04:10:39;;;;;;;31.67;17.35;;;5.70;99.90;;;;;;5117841;28;20081;-73
2023/01/24 04:13:04;;;;;;;32.28;16.90;;;5.70;99.90;;;;;;5117832;28;20071;-73
2023/01/24 04:15:32;;;;;;;31.20;17.75;;;5.80;99.90;;;;;;5117800;28;20400;-73
2023/01/24 04:17:59;;;;;;;30.08;16.95;;;5.80;99.90;;;;;;5117776;28;20336;-73
2023/01/24 04:20:27;;;;;;;26.95;15.35;;;5.80;99.90;;;;;;5117620;28;20035;-73
2023/01/24 04:22:53;;;;;;;29.65;15.93;;;5.80;99.90;;;;;;5117384;28;20047;-73
2023/01/24 04:25:19;;;;;;;29.98;15.45;;;5.80;99.90;;;;;;5117371;28;20039;-73
2023/01/24 04:27:45;;;;;;;25.23;14.32;;;5.60;99.90;;;;;;5117512;28;20044;-73
2023/01/24 04:30:13;;;;;;;26.85;14.57;;;5.60;99.90;;;;;;5116245;28;20063;-73
2023/01/24 04:32:39;;;;;;;30.42;16.05;;;5.70;99.90;;;;;;5116211;28;20054;-73
2023/01/24 04:35:05;;;;;;;26.10;14.48;;;5.60;99.90;;;;;;5117508;28;20048;-73
2023/01/24 04:37:32;;;;;;;26.52;14.55;;;5.50;99.90;;;;;;5117498;28;20036;-73
2023/01/24 04:40:01;;;;;;;25.98;14.73;;;5.50;99.90;;;;;;5117450;28;20084;-73
2023/01/24 04:42:26;;;;;;;25.45;14.20;;;5.40;99.90;;;;;;5117403;28;20079;-73
2023/01/24 04:44:52;;;;;;;25.73;14.85;;;5.40;99.90;;;;;;5117390;28;20078;-73
2023/01/24 04:47:18;;;;;;;30.50;15.35;;;5.40;99.90;;;;;;5117348;28;20389;-73
2023/01/24 04:49:43;;;;;;;28.83;15.27;;;5.50;99.90;;;;;;5117223;28;20469;-73
2023/01/24 04:52:13;;;;;;;27.88;15.18;;;5.40;99.90;;;;;;5115990;28;20065;-73
2023/01/24 04:54:39;;;;;;;26.98;14.57;;;5.50;99.90;;;;;;5116976;28;20131;-73
2023/01/24 04:57:06;;;;;;;24.77;13.93;;;5.50;99.90;;;;;;5116656;28;20042;-73
2023/01/24 04:59:31;;;;;;;31.15;15.93;;;5.60;99.90;;;;;;5116937;28;20535;-73
2023/01/24 05:01:57;;;;;;;28.15;16.33;;;5.50;99.90;;;;;;5117215;28;20071;-73
2023/01/24 05:04:23;;;;;;;25.95;14.43;;;5.50;99.90;;;;;;5117222;28;20077;-73
2023/01/24 05:06:48;;;;;;;30.15;16.17;;;5.40;99.90;;;;;;5117139;28;20043;-73
2023/01/24 05:09:14;;;;;;;26.90;15.13;;;5.50;99.90;;;;;;5117039;28;20092;-73
2023/01/24 05:11:40;;;;;;;29.00;14.95;;;5.60;99.90;;;;;;5115826;28;20039;-73
2023/01/24 05:14:09;;;;;;;29.08;16.25;;;5.50;99.90;;;;;;5117098;28;20036;-73
2023/01/24 05:16:35;;;;;;;29.65;15.70;;;5.50;99.90;;;;;;5116760;28;20046;-73
2023/01/24 05:19:00;;;;;;;28.00;15.38;;;5.40;99.90;;;;;;5118191;28;20341;-73
2023/01/24 05:21:26;;;;;;;27.67;15.57;;;5.40;99.90;;;;;;5121112;28;20472;-73
2023/01/24 05:23:53;;;;;;;29.33;15.40;;;5.40;99.90;;;;;;5121126;28;20035;-73
2023/01/24 05:26:21;;;;;;;30.15;15.45;;;5.40;99.90;;;;;;5119629;28;20333;-73
2023/01/24 05:28:47;;;;;;;30.25;17.05;;;5.30;99.90;;;;;;5120661;28;20043;-73
2023/01/24 05:31:13;;;;;;;32.28;17.35;;;5.30;99.90;;;;;;5120955;28;20032;-73
2023/01/24 05:33:40;;;;;;;25.45;14.93;;;5.20;99.90;;;;;;5120481;28;20126;-73
2023/01/24 05:36:25;;;;;;;30.02;16.95;;;5.40;99.90;;;;;;5102853;28;20082;-73
2023/01/24 05:38:51;;;;;;;29.48;16.50;;;5.40;99.90;;;;;;5120808;28;20036;-74
2023/01/24 05:41:19;;;;;;;31.60;16.17;;;5.30;99.90;;;;;;5120765;28;20126;-73
2023/01/24 05:43:46;;;;;;;28.35;16.55;;;5.40;99.90;;;;;;5120422;28;20083;-73
2023/01/24 05:46:20;;;;;;;32.80;17.42;;;5.50;99.90;;;;;;5120351;28;20424;-73
2023/01/24 05:48:47;;;;;;;34.58;17.48;;;5.50;99.90;;;;;;5120492;28;20039;-73
2023/01/24 05:51:17;;;;;;;34.70;17.77;;;5.40;99.90;;;;;;5120573;28;20031;-73
2023/01/24 05:53:43;;;;;;;32.78;17.80;;;5.30;99.90;;;;;;5120539;28;20341;-73
2023/01/24 05:56:18;;;;;;;33.13;18.13;;;5.40;99.90;;;;;;5118818;28;20040;-73
2023/01/24 05:58:44;;;;;;;34.25;18.77;;;5.30;99.90;;;;;;5120563;28;20054;-73
2023/01/24 06:01:12;;;;;;;35.47;18.92;;;5.30;99.90;;;;;;5120113;28;20035;-73
2023/01/24 06:03:40;;;;;;;28.05;16.20;;;5.10;99.90;;;;;;5120404;28;20096;-73
2023/01/24 06:06:07;;;;;;;36.42;17.83;;;5.10;99.90;;;;;;5120088;28;20036;-73
2023/01/24 06:08:33;;;;;;;32.38;17.45;;;5.10;99.90;;;;;;5120191;28;20036;-73
2023/01/24 06:11:04;;;;;;;33.67;17.48;;;5.10;99.90;;;;;;5120146;28;20032;-73
2023/01/24 06:13:30;;;;;;;30.75;17.00;;;4.90;99.90;;;;;;5119873;28;20032;-73
2023/01/24 06:16:09;;;;;;;30.52;16.67;;;5.10;99.90;;;;;;5119803;28;20420;-73
2023/01/24 06:18:34;;;;;;;29.65;15.23;;;5.20;99.90;;;;;;5119093;28;20046;-73
2023/01/24 06:21:12;;;;;;;34.05;17.60;;;5.30;99.90;;;;;;5120036;28;20036;-73
2023/01/24 06:23:38;;;;;;;35.17;18.52;;;5.40;99.90;;;;;;5119658;28;20081;-73
2023/01/24 06:26:04;;;;;;;32.40;17.17;;;5.30;99.90;;;;;;5119607;28;20047;-73
2023/01/24 06:28:30;;;;;;;37.50;18.77;;;5.30;99.90;;;;;;5119813;28;20035;-73
2023/01/24 06:31:33;;;;;;;33.15;18.45;;;5.20;99.90;;;;;;5118589;28;20032;-73
2023/01/24 06:34:21;;;;;;;31.98;18.08;;;5.10;99.90;;;;;;5104060;28;20054;-73
2023/01/24 06:36:59;;;;;;;32.53;17.13;;;5.20;99.90;;;;;;5119661;28;20047;-73
2023/01/24 06:39:25;;;;;;;31.80;16.90;;;5.20;99.90;;;;;;5119675;28;20047;-73
2023/01/24 06:41:51;;;;;;;30.83;17.95;;;5.20;99.90;;;;;;5119582;28;20126;-73
2023/01/24 06:44:17;;;;;;;31.63;17.42;;;5.30;99.90;;;;;;5119522;27;20067;-73
2023/01/24 06:46:43;;;;;;;35.38;18.20;;;5.40;99.90;;;;;;5119539;28;20112;-73
2023/01/24 06:49:11;;;;;;;33.55;17.90;;;5.40;99.90;;;;;;5119377;28;20120;-73
2023/01/24 06:51:37;;;;;;;35.13;18.35;;;5.40;99.90;;;;;;5119430;28;20028;-73
2023/01/24 06:54:03;;;;;;;38.92;20.10;;;5.40;99.90;;;;;;5119376;28;20075;-73
2023/01/24 06:56:29;;;;;;;39.05;20.75;;;5.20;99.90;;;;;;5119012;28;20070;-73
2023/01/24 06:58:54;;;;;;;36.78;20.25;;;5.20;99.90;;;;;;5119268;28;20044;-73
2023/01/24 07:01:20;;;;;;;36.67;18.73;;;5.00;99.90;;;;;;5119210;28;20035;-73
2023/01/24 07:03:46;;;;;;;32.55;17.60;;;5.00;99.90;;;;;;5118929;28;20078;-73
2023/01/24 07:06:11;;;;;;;30.90;17.08;;;4.90;99.90;;;;;;5118713;28;20067;-73
2023/01/24 07:08:37;;;;;;;31.45;17.35;;;4.90;99.90;;;;;;5118176;27;20042;-72
2023/01/24 07:11:03;;;;;;;30.58;17.48;;;5.00;99.90;;;;;;5117158;28;20035;-71
2023/01/24 07:13:28;;;;;;;30.90;17.23;;;5.20;99.90;;;;;;5117969;28;20083;-73
2023/01/24 07:15:54;;;;;;;32.35;17.23;;;5.30;99.90;;;;;;5118326;28;20039;-76
2023/01/24 07:18:20;;;;;;;34.03;17.90;;;5.40;99.90;;;;;;5118164;28;20054;-72
2023/01/24 07:20:46;;;;;;;31.77;17.02;;;5.30;99.90;;;;;;5117889;28;20035;-73
2023/01/24 07:23:24;;;;;;;30.42;17.08;;;5.30;99.90;;;;;;5098375;28;20329;-71
2023/01/24 07:25:52;;;;;;;30.40;16.45;;;5.20;99.90;;;;;;5097978;28;20044;-71
2023/01/24 07:28:18;;;;;;;28.25;16.17;;;5.20;99.90;;;;;;5098574;28;20052;-71
2023/01/24 07:30:44;;;;;;;30.98;16.65;;;5.20;99.90;;;;;;5098261;28;20040;-72
2023/01/24 07:33:14;;;;;;;27.55;16.20;;;5.30;99.90;;;;;;5097063;28;20472;-73
2023/01/24 07:35:41;;;;;;;28.65;16.45;;;5.30;99.90;;;;;;5098167;28;20392;-73
2023/01/24 07:38:06;;;;;;;25.80;15.20;;;5.40;99.90;;;;;;5098085;28;20040;-72
2023/01/24 07:40:32;;;;;;;28.58;15.30;;;5.40;99.90;;;;;;5096957;28;20063;-73
2023/01/24 07:43:02;;;;;;;26.38;16.38;;;5.30;99.90;;;;;;5097728;28;20378;-73
2023/01/24 07:45:28;;;;;;;29.80;16.50;;;5.40;99.90;;;;;;5097951;28;20036;-72
2023/01/24 07:47:56;;;;;;;28.70;16.77;;;5.30;99.90;;;;;;5097884;28;20131;-72
2023/01/24 07:50:23;;;;;;;31.20;16.92;;;5.30;99.90;;;;;;5097871;28;20032;-72
2023/01/24 07:52:52;;;;;;;29.48;17.10;;;5.40;99.90;;;;;;5097640;28;20047;-73
2023/01/24 07:55:19;;;;;;;30.58;16.10;;;5.30;99.90;;;;;;5096177;28;20040;-73
2023/01/24 07:57:44;;;;;;;27.33;16.30;;;5.20;99.90;;;;;;5096415;28;20055;-72
2023/01/24 08:00:11;;;;;;;31.90;17.33;;;5.10;99.90;;;;;;5097696;28;20036;-72
2023/01/24 08:02:36;;;;;;;30.63;16.92;;;5.10;99.90;;;;;;5096649;28;20064;-73
2023/01/24 08:05:02;;;;;;;26.10;15.90;;;5.10;99.90;;;;;;5097747;28;20092;-72
2023/01/24 08:07:28;;;;;;;29.65;17.00;;;5.10;99.90;;;;;;5097308;28;20068;-72
2023/01/24 08:09:53;;;;;;;26.98;16.42;;;5.10;99.90;;;;;;5097146;28;20048;-72
2023/01/24 08:12:19;;;;;;;31.10;18.05;;;5.30;99.90;;;;;;5096187;28;20032;-72
2023/01/24 08:14:45;;;;;;;27.42;16.85;;;5.40;99.90;;;;;;5097369;28;20036;-73
2023/01/24 08:17:11;;;;;;;32.38;17.58;;;5.40;99.90;;;;;;5097134;28;20050;-74
2023/01/24 08:19:37;;;;;;;32.42;18.45;;;5.40;99.90;;;;;;5097434;28;20044;-73
2023/01/24 08:22:04;;;;;;;30.45;17.35;;;5.40;99.90;;;;;;5097346;28;20101;-73
2023/01/24 08:24:29;;;;;;;31.50;17.38;;;5.50;99.90;;;;;;5097224;28;20111;-73
2023/01/24 08:26:55;;;;;;;28.52;16.20;;;5.40;99.90;;;;;;5096800;28;20119;-72
2023/01/24 08:29:21;;;;;;;28.20;16.45;;;5.30;99.90;;;;;;5095888;28;20028;-72
2023/01/24 08:31:48;;;;;;;28.67;16.10;;;5.20;99.90;;;;;;5095888;28;20116;-73
2023/01/24 08:34:14;;;;;;;27.48;15.93;;;5.20;99.90;;;;;;5097156;28;20040;-73
2023/01/24 08:36:39;;;;;;;28.27;16.90;;;5.20;99.90;;;;;;5097138;28;20379;-73
2023/01/24 08:39:05;;;;;;;27.50;17.33;;;5.20;99.90;;;;;;5097077;28;20039;-73
2023/01/24 08:41:31;;;;;;;27.17;16.17;;;5.30;99.90;;;;;;5097039;28;20036;-73
2023/01/24 08:43:56;;;;;;;30.95;17.30;;;5.10;99.90;;;;;;5095752;28;20039;-69
2023/01/24 08:46:22;;;;;;;25.52;16.60;;;5.10;99.90;;;;;;5096951;28;20040;-69
2023/01/24 08:48:48;;;;;;;26.80;16.60;;;5.30;99.90;;;;;;5096612;28;20054;-69
2023/01/24 08:51:14;;;;;;;30.23;18.25;;;5.30;99.90;;;;;;5096911;28;20036;-68
2023/01/24 08:53:39;;;;;;;29.25;17.25;;;5.40;99.90;;;;;;5095890;28;20038;-68
2023/01/24 08:56:06;;;;;;;29.30;16.48;;;5.40;99.90;;;;;;5095749;28;20036;-68
2023/01/24 08:58:33;;;;;;;29.63;17.33;;;5.40;99.90;;;;;;5096563;28;20497;-68
2023/01/24 09:00:59;;;;;;;25.05;15.25;;;5.40;99.90;;;;;;5096537;28;20494;-68
2023/01/24 09:03:26;;;;;;;28.55;17.15;;;5.30;99.90;;;;;;5096807;28;20340;-68
2023/01/24 09:05:57;;;;;;;27.25;16.00;;;5.20;99.90;;;;;;5096464;28;20429;-68
2023/01/24 09:08:23;;;;;;;25.60;15.20;;;5.10;99.90;;;;;;5096330;28;20040;-68
2023/01/24 09:10:49;;;;;;;26.67;14.30;;;5.00;99.90;;;;;;5096774;28;20081;-68
2023/01/24 09:13:15;;;;;;;25.25;14.30;;;4.90;99.90;;;;;;5096720;28;20044;-68
2023/01/24 09:15:40;;;;;;;24.08;13.63;;;5.00;99.90;;;;;;5096709;28;20107;-68
2023/01/24 09:18:06;;;;;;;22.77;12.55;;;4.90;99.90;;;;;;5096675;28;20377;-68
2023/01/24 09:20:32;;;;;;;19.77;11.65;;;4.60;99.90;;;;;;5096638;28;20032;-68
2023/01/24 09:22:58;;;;;;;22.70;12.23;;;4.50;99.90;;;;;;5096639;28;20119;-68
2023/01/24 09:25:24;;;;;;;25.55;12.07;;;4.70;99.90;;;;;;5095829;28;20044;-67
2023/01/24 09:27:54;;;;;;;22.17;12.38;;;4.80;99.90;;;;;;5096523;28;20050;-68
2023/01/24 09:30:20;;;;;;;23.38;12.68;;;5.10;99.90;;;;;;5096297;28;20065;-68
2023/01/24 09:32:46;;;;;;;21.88;12.40;;;5.00;99.90;;;;;;5096097;28;20062;-70
2023/01/24 09:35:12;;;;;;;24.00;13.45;;;5.10;99.90;;;;;;5096537;28;20111;-68
2023/01/24 09:37:37;;;;;;;22.48;12.73;;;5.20;99.90;;;;;;5096514;28;20039;-68
2023/01/24 09:40:03;;;;;;;21.75;12.02;;;5.20;99.90;;;;;;5096468;28;20043;-68
2023/01/24 09:42:40;;;;;;;18.92;10.82;;;5.10;99.90;;;;;;5096480;28;20097;-68
2023/01/24 09:45:33;;;;;;;20.35;11.07;;;5.00;99.90;;;;;;5096527;28;20061;-68
2023/01/24 09:48:02;;;;;;;19.40;10.52;;;5.10;99.90;;;;;;5096215;28;20044;-70
2023/01/24 09:50:50;;;;;;;21.35;11.00;;;5.20;99.90;;;;;;5096403;28;20298;-68
2023/01/24 09:53:24;;;;;;;20.25;11.18;;;5.20;99.90;;;;;;5089456;28;20055;-68
2023/01/24 09:55:52;;;;;;;21.98;11.00;;;5.10;99.90;;;;;;5095759;28;20413;-68
2023/01/24 09:58:28;;;;;;;20.23;10.48;;;5.10;99.90;;;;;;5096364;28;20094;-69
2023/01/24 10:00:54;;;;;;;18.38;10.23;;;5.00;99.90;;;;;;5096377;28;20040;-69
2023/01/24 10:03:24;;;;;;;21.52;11.50;;;5.00;99.90;;;;;;5095948;28;20456;-69
2023/01/24 10:05:52;;;;;;;18.95;11.30;;;5.00;99.90;;;;;;5098527;28;20097;-69
2023/01/24 10:08:33;;;;;;;19.10;10.43;;;5.10;99.90;;;;;;5099767;28;20032;-69
2023/01/24 10:11:20;;;;;;;21.27;11.98;;;5.20;99.90;;;;;;5100360;28;20149;-69
2023/01/24 10:13:55;;;;;;;18.98;10.70;;;5.20;99.90;;;;;;5099775;28;20112;-69
2023/01/24 10:16:50;;;;;;;18.42;10.43;;;5.20;99.90;;;;;;5098808;28;20036;-69
2023/01/24 10:19:24;;;;;;;21.63;10.88;;;5.30;99.90;;;;;;5099707;28;20040;-68
2023/01/24 10:22:08;;;;;;;18.77;10.60;;;5.40;99.90;;;;;;5099640;28;20051;-69
2023/01/24 10:24:38;;;;;;;18.77;10.80;;;5.30;99.90;;;;;;5099550;28;20047;-69
2023/01/24 10:27:25;;;;;;;21.40;10.88;;;5.10;99.90;;;;;;5099111;28;20050;-69
2023/01/24 10:29:57;;;;;;;21.90;11.85;;;4.90;99.90;;;;;;5099465;28;20101;-69
2023/01/24 10:32:34;;;;;;;19.15;10.95;;;5.00;99.90;;;;;;5099208;28;20048;-69
2023/01/24 10:35:12;;;;;;;22.17;10.75;;;5.10;99.90;;;;;;5099421;28;20333;-69
2023/01/24 10:37:43;;;;;;;18.23;10.32;;;5.10;99.90;;;;;;5099339;28;20036;-69
2023/01/24 10:40:14;;;;;;;21.30;11.25;;;5.20;99.90;;;;;;5097979;28;20075;-69
2023/01/24 10:42:41;;;;;;;17.00;10.02;;;5.40;99.90;;;;;;5099194;28;20048;-69
2023/01/24 10:45:48;;;;;;;19.73;10.48;;;5.60;99.90;;;;;;5099200;28;20036;-68
2023/01/24 10:48:35;;;;;;;18.95;10.63;;;5.50;99.90;;;;;;5084778;28;20398;-73
2023/01/24 10:51:21;;;;;;;18.65;10.52;;;5.40;99.90;;;;;;5114717;28;20032;-69
2023/01/24 10:53:47;;;;;;;22.13;10.60;;;5.30;99.90;;;;;;5099081;28;20039;-70
2023/01/24 10:56:15;;;;;;;21.48;10.63;;;5.20;99.90;;;;;;5098586;28;20043;-69
2023/01/24 10:58:59;;;;;;;20.65;10.52;;;5.10;99.90;;;;;;5098843;28;20097;-68
2023/01/24 11:01:51;;;;;;;20.52;10.00;;;5.20;99.90;;;;;;5098581;28;20047;-72
2023/01/24 11:04:29;;;;;;;19.13;9.93;;;5.30;99.90;;;;;;5097626;28;20048;-71
2023/01/24 11:06:55;;;;;;;20.27;11.55;;;5.50;99.90;;;;;;5105785;28;20076;-68
2023/01/24 11:09:29;;;;;;;20.95;10.65;;;5.60;99.90;;;;;;5098392;28;20052;-68
2023/01/24 11:11:57;;;;;;;20.80;10.52;;;5.50;99.90;;;;;;5097857;28;20043;-69
2023/01/24 11:14:47;;;;;;;21.05;11.38;;;5.20;99.90;;;;;;5098971;28;20036;-69
2023/01/24 11:17:34;;;;;;;20.60;10.63;;;5.10;99.90;;;;;;5097964;28;20039;-69
2023/01/24 11:20:22;;;;;;;23.02;11.00;;;5.10;99.90;;;;;;5100097;28;20032;-71
2023/01/24 11:22:51;;;;;;;21.48;10.48;;;5.20;99.90;;;;;;5098059;28;20097;-70
2023/01/24 11:25:17;;;;;;;19.73;11.30;;;5.30;99.90;;;;;;5098182;28;20039;-69
2023/01/24 11:27:50;;;;;;;19.92;10.55;;;5.30;99.90;;;;;;5114989;28;20498;-69
2023/01/24 11:30:21;;;;;;;20.38;11.07;;;5.30;99.90;;;;;;5117189;28;20441;-70
2023/01/24 11:33:09;;;;;;;21.02;10.90;;;5.40;99.90;;;;;;5117103;28;20075;-70
2023/01/24 11:35:40;;;;;;;27.67;11.63;;;5.50;99.90;;;;;;5118425;28;20112;-70
2023/01/24 11:38:24;;;;;;;21.88;11.82;;;5.50;99.90;;;;;;5115552;28;20032;-70
2023/01/24 11:41:03;;;;;;;24.58;11.75;;;5.50;99.90;;;;;;5112849;28;20118;-68
2023/01/24 11:43:41;;;;;;;21.20;12.30;;;5.30;99.90;;;;;;5115289;28;20131;-69
2023/01/24 11:46:15;;;;;;;25.23;12.32;;;5.30;99.90;;;;;;5118039;28;20424;-69
2023/01/24 11:48:56;;;;;;;22.80;11.88;;;5.20;99.90;;;;;;5118268;28;20047;-69
2023/01/24 11:51:46;;;;;;;22.00;11.98;;;5.20;99.90;;;;;;5118321;28;20140;-69
2023/01/24 11:54:37;;;;;;;22.02;11.55;;;5.40;99.90;;;;;;5118003;28;20036;-69
2023/01/24 11:57:38;;;;;;;22.35;12.18;;;5.60;99.90;;;;;;5117788;28;20050;-69
2023/01/24 12:00:03;;;;;;;22.40;12.00;;;5.70;99.90;;;;;;5118038;28;20043;-70
2023/01/24 12:02:53;;;;;;;23.35;12.63;;;5.60;99.90;;;;;;5118684;28;20131;-69
2023/01/24 12:05:39;;;;;;;22.55;12.93;;;5.60;99.90;;;;;;5118047;28;20036;-69
2023/01/24 12:08:08;;;;;;;28.17;13.32;;;5.60;99.90;;;;;;5117676;28;20078;-69
2023/01/24 12:10:51;;;;;;;22.05;12.45;;;5.50;99.90;;;;;;5117670;28;20047;-70
2023/01/24 12:13:22;;;;;;;24.80;13.15;;;5.50;99.90;;;;;;5117614;28;20489;-69
2023/01/24 12:16:04;;;;;;;23.40;13.38;;;5.40;99.90;;;;;;5117751;28;20058;-70
2023/01/24 12:19:07;;;;;;;21.20;12.48;;;5.40;99.90;;;;;;5099784;28;20047;-71
2023/01/24 12:21:33;;;;;;;23.25;13.38;;;5.40;99.90;;;;;;5117501;28;20042;-73
2023/01/24 12:24:14;;;;;;;22.23;12.60;;;5.40;99.90;;;;;;5117909;28;20040;-71
2023/01/24 12:26:52;;;;;;;26.15;13.77;;;5.30;99.90;;;;;;5117248;28;20055;-71
2023/01/24 12:29:22;;;;;;;22.20;11.57;;;5.40;99.90;;;;;;5116672;28;20054;-70
2023/01/24 12:31:57;;;;;;;23.13;12.30;;;5.40;99.90;;;;;;5117562;28;20081;-69
2023/01/24 12:34:45;;;;;;;23.63;12.30;;;5.30;99.90;;;;;;5117135;28;20455;-69
2023/01/24 12:37:28;;;;;;;27.00;12.80;;;5.30;99.90;;;;;;5117520;28;20042;-71
2023/01/24 12:40:26;;;;;;;24.25;12.98;;;5.50;99.90;;;;;;5117561;28;20111;-69
2023/01/24 12:43:12;;;;;;;23.60;12.57;;;5.60;99.90;;;;;;5097112;28;20048;-70
2023/01/24 12:46:01;;;;;;;22.67;12.65;;;5.70;99.90;;;;;;5108129;28;20044;-70
2023/01/24 12:49:03;;;;;;;20.83;12.23;;;5.80;99.90;;;;;;5096878;28;20421;-70
2023/01/24 12:51:42;;;;;;;22.38;12.45;;;5.80;99.90;;;;;;5084143;28;20447;-69
2023/01/24 12:54:30;;;;;;;24.90;13.23;;;5.80;99.90;;;;;;5096690;28;20519;-69
2023/01/24 12:57:11;;;;;;;26.02;13.27;;;5.70;99.90;;;;;;5096282;28;20036;-69
2023/01/24 12:59:37;;;;;;;23.23;12.88;;;5.80;99.90;;;;;;5096907;28;20123;-70
2023/01/24 13:02:23;;;;;;;24.83;13.80;;;5.70;99.90;;;;;;5096566;28;20067;-69
2023/01/24 13:05:08;;;;;;;24.15;13.02;;;5.60;99.90;;;;;;5092632;28;20044;-69
2023/01/24 13:07:54;;;;;;;24.77;13.70;;;5.60;99.90;;;;;;5107423;28;20043;-70
2023/01/24 13:10:34;;;;;;;23.25;11.98;;;5.60;99.90;;;;;;5107441;28;20498;-69
2023/01/24 13:13:01;;;;;;;21.55;11.65;;;5.50;99.90;;;;;;5103126;28;20313;-70
2023/01/24 13:15:51;;;;;;;21.25;11.93;;;5.50;99.90;;;;;;5115972;28;20093;-69
2023/01/24 13:18:58;;;;;;;21.30;12.05;;;5.60;99.90;;;;;;5110875;28;20448;-70
2023/01/24 13:21:42;;;;;;;20.20;11.60;;;5.50;99.90;;;;;;5106493;28;20032;-69
2023/01/24 13:24:28;;;;;;;21.90;12.30;;;5.50;99.90;;;;;;5116981;28;20050;-69
2023/01/24 13:27:15;;;;;;;27.27;13.00;;;5.40;99.90;;;;;;5096723;28;20040;-70
2023/01/24 13:30:34;;;;;;;26.67;12.88;;;5.50;99.90;;;;;;5096479;28;20316;-69
2023/01/24 13:33:02;;;;;;;;;;;5.50;99.90;;;;;;5073322;28;20070;-69
2023/01/24 13:35:28;;;;;;;21.67;11.38;;;5.50;99.90;;;;;;5096457;28;19916;-69
2023/01/24 13:38:15;;;;;;;25.50;13.98;;;5.50;99.90;;;;;;5096242;28;20032;-69